sensor_id;sensor_type;location;lat;lon;timestamp;pressure;altitude;pressure_sealevel;temperature;humidity
32456;BME280;18912;43.270;27.942;2022-10-19T00:02:17;98723.97;;;8.54;84.38
32456;BME280;18912;43.270;27.942;2022-10-19T00:04:43;98733.69;;;8.63;83.41
32456;BME280;18912;43.270;27.942;2022-10-19T00:07:08;98728.56;;;8.68;82.64
32456;BME280;18912;43.270;27.942;2022-10-19T00:09:34;98720.56;;;8.60;83.07
32456;BME280;18912;43.270;27.942;2022-10-19T00:11:59;98717.94;;;8.52;83.57
32456;BME280;18912;43.270;27.942;2022-10-19T00:14:25;98715.19;;;8.60;84.23
32456;BME280;18912;43.270;27.942;2022-10-19T00:16:51;98716.56;;;8.56;84.30
32456;BME280;18912;43.270;27.942;2022-10-19T00:19:24;98712.91;;;8.49;84.01
32456;BME280;18912;43.270;27.942;2022-10-19T00:21:50;98709.44;;;8.40;84.54
32456;BME280;18912;43.270;27.942;2022-10-19T00:24:16;98705.59;;;8.35;84.50
32456;BME280;18912;43.270;27.942;2022-10-19T00:26:42;98701.22;;;8.34;84.31
32456;BME280;18912;43.270;27.942;2022-10-19T00:29:07;98692.13;;;8.35;83.08
32456;BME280;18912;43.270;27.942;2022-10-19T00:31:33;98691.84;;;8.22;82.54
32456;BME280;18912;43.270;27.942;2022-10-19T00:33:59;98687.59;;;8.05;84.75
32456;BME280;18912;43.270;27.942;2022-10-19T00:36:36;98681.78;;;8.16;84.52
32456;BME280;18912;43.270;27.942;2022-10-19T00:39:04;98675.66;;;8.30;83.94
32456;BME280;18912;43.270;27.942;2022-10-19T00:41:32;98675.69;;;8.22;84.53
32456;BME280;18912;43.270;27.942;2022-10-19T00:46:35;98663.97;;;8.15;85.66
32456;BME280;18912;43.270;27.942;2022-10-19T00:49:04;98667.84;;;8.12;85.21
32456;BME280;18912;43.270;27.942;2022-10-19T00:51:32;98664.44;;;8.18;86.96
32456;BME280;18912;43.270;27.942;2022-10-19T00:54:02;98657.38;;;8.17;88.26
32456;BME280;18912;43.270;27.942;2022-10-19T00:56:28;98656.66;;;8.23;87.91
32456;BME280;18912;43.270;27.942;2022-10-19T00:58:54;98656.31;;;8.26;87.78
32456;BME280;18912;43.270;27.942;2022-10-19T01:01:21;98646.84;;;8.30;87.33
32456;BME280;18912;43.270;27.942;2022-10-19T01:03:48;98645.19;;;8.29;87.19
32456;BME280;18912;43.270;27.942;2022-10-19T01:06:16;98646.38;;;8.27;87.64
32456;BME280;18912;43.270;27.942;2022-10-19T01:08:42;98646.84;;;8.30;87.08
32456;BME280;18912;43.270;27.942;2022-10-19T01:11:26;98642.06;;;8.18;86.97
32456;BME280;18912;43.270;27.942;2022-10-19T01:16:52;98634.25;;;8.00;87.74
32456;BME280;18912;43.270;27.942;2022-10-19T01:28:18;98617.75;;;8.03;86.28
32456;BME280;18912;43.270;27.942;2022-10-19T01:31:16;98608.19;;;8.01;86.36
32456;BME280;18912;43.270;27.942;2022-10-19T01:39:03;98602.44;;;8.04;90.18
32456;BME280;18912;43.270;27.942;2022-10-19T01:41:49;98603.75;;;8.08;90.84
32456;BME280;18912;43.270;27.942;2022-10-19T01:44:27;98597.66;;;8.14;91.04
32456;BME280;18912;43.270;27.942;2022-10-19T01:46:59;98596.69;;;8.07;91.08
32456;BME280;18912;43.270;27.942;2022-10-19T01:49:37;98589.63;;;8.06;91.50
32456;BME280;18912;43.270;27.942;2022-10-19T01:52:08;98590.28;;;8.08;91.51
32456;BME280;18912;43.270;27.942;2022-10-19T01:54:42;98580.88;;;8.04;91.59
32456;BME280;18912;43.270;27.942;2022-10-19T01:57:11;98582.56;;;8.05;90.71
32456;BME280;18912;43.270;27.942;2022-10-19T01:59:38;98572.00;;;8.03;90.33
32456;BME280;18912;43.270;27.942;2022-10-19T02:02:05;98581.22;;;8.09;89.16
32456;BME280;18912;43.270;27.942;2022-10-19T02:04:32;98570.13;;;8.04;88.29
32456;BME280;18912;43.270;27.942;2022-10-19T02:06:58;98575.44;;;8.12;86.46
32456;BME280;18912;43.270;27.942;2022-10-19T02:09:25;98578.50;;;8.09;86.46
32456;BME280;18912;43.270;27.942;2022-10-19T02:11:55;98576.06;;;7.99;86.51
32456;BME280;18912;43.270;27.942;2022-10-19T02:14:26;98587.00;;;7.98;87.79
32456;BME280;18912;43.270;27.942;2022-10-19T02:17:04;98577.06;;;7.98;87.54
32456;BME280;18912;43.270;27.942;2022-10-19T02:19:31;98569.53;;;7.94;87.10
32456;BME280;18912;43.270;27.942;2022-10-19T02:21:57;98570.22;;;7.96;88.23
32456;BME280;18912;43.270;27.942;2022-10-19T02:24:22;98569.16;;;7.97;88.68
32456;BME280;18912;43.270;27.942;2022-10-19T02:26:48;98568.88;;;7.92;88.91
32456;BME280;18912;43.270;27.942;2022-10-19T02:29:15;98564.16;;;7.94;89.49
32456;BME280;18912;43.270;27.942;2022-10-19T02:31:41;98574.09;;;7.93;88.72
32456;BME280;18912;43.270;27.942;2022-10-19T02:34:07;98564.97;;;7.94;88.36
32456;BME280;18912;43.270;27.942;2022-10-19T02:36:33;98560.16;;;7.90;88.06
32456;BME280;18912;43.270;27.942;2022-10-19T02:38:59;98554.56;;;7.91;87.13
32456;BME280;18912;43.270;27.942;2022-10-19T02:42:17;98560.25;;;7.96;86.75
32456;BME280;18912;43.270;27.942;2022-10-19T02:44:46;98558.41;;;7.97;86.47
32456;BME280;18912;43.270;27.942;2022-10-19T02:47:29;98551.00;;;7.99;86.10
32456;BME280;18912;43.270;27.942;2022-10-19T02:49:56;98558.41;;;7.97;85.50
32456;BME280;18912;43.270;27.942;2022-10-19T02:52:21;98558.03;;;8.00;85.08
32456;BME280;18912;43.270;27.942;2022-10-19T02:54:47;98563.66;;;7.90;86.14
32456;BME280;18912;43.270;27.942;2022-10-19T02:57:21;98555.06;;;7.95;85.51
32456;BME280;18912;43.270;27.942;2022-10-19T02:59:47;98543.69;;;7.85;85.38
32456;BME280;18912;43.270;27.942;2022-10-19T03:02:14;98552.06;;;7.90;85.76
32456;BME280;18912;43.270;27.942;2022-10-19T03:04:40;98549.72;;;7.87;86.79
32456;BME280;18912;43.270;27.942;2022-10-19T03:07:07;98544.72;;;7.84;86.35
32456;BME280;18912;43.270;27.942;2022-10-19T03:09:33;98538.81;;;7.88;86.21
32456;BME280;18912;43.270;27.942;2022-10-19T03:11:58;98540.47;;;7.89;86.20
32456;BME280;18912;43.270;27.942;2022-10-19T03:14:24;98531.13;;;8.00;85.98
32456;BME280;18912;43.270;27.942;2022-10-19T03:16:49;98534.47;;;8.02;85.65
32456;BME280;18912;43.270;27.942;2022-10-19T03:19:15;98523.59;;;7.95;85.06
32456;BME280;18912;43.270;27.942;2022-10-19T03:21:40;98525.09;;;7.98;86.05
32456;BME280;18912;43.270;27.942;2022-10-19T03:24:05;98526.69;;;8.07;85.92
32456;BME280;18912;43.270;27.942;2022-10-19T03:26:31;98525.66;;;8.08;86.70
32456;BME280;18912;43.270;27.942;2022-10-19T03:28:56;98531.03;;;8.08;86.01
32456;BME280;18912;43.270;27.942;2022-10-19T03:31:22;98526.31;;;8.10;86.00
32456;BME280;18912;43.270;27.942;2022-10-19T03:33:47;98514.09;;;8.22;87.69
32456;BME280;18912;43.270;27.942;2022-10-19T03:36:23;98514.94;;;8.22;88.06
32456;BME280;18912;43.270;27.942;2022-10-19T03:38:50;98508.38;;;8.25;88.62
32456;BME280;18912;43.270;27.942;2022-10-19T03:41:17;98517.81;;;8.21;88.82
32456;BME280;18912;43.270;27.942;2022-10-19T03:43:42;98517.16;;;8.19;89.09
32456;BME280;18912;43.270;27.942;2022-10-19T03:46:08;98508.41;;;8.17;88.26
32456;BME280;18912;43.270;27.942;2022-10-19T03:48:34;98520.94;;;8.10;88.27
32456;BME280;18912;43.270;27.942;2022-10-19T03:51:08;98505.81;;;8.09;88.01
32456;BME280;18912;43.270;27.942;2022-10-19T03:53:34;98503.66;;;8.04;88.62
32456;BME280;18912;43.270;27.942;2022-10-19T03:56:04;98501.69;;;7.98;89.67
32456;BME280;18912;43.270;27.942;2022-10-19T03:58:33;98512.34;;;7.92;89.51
32456;BME280;18912;43.270;27.942;2022-10-19T04:00:59;98505.94;;;7.93;90.39
32456;BME280;18912;43.270;27.942;2022-10-19T04:03:25;98495.38;;;7.91;91.25
32456;BME280;18912;43.270;27.942;2022-10-19T04:05:51;98498.91;;;7.92;90.76
32456;BME280;18912;43.270;27.942;2022-10-19T04:08:17;98490.34;;;7.88;91.38
32456;BME280;18912;43.270;27.942;2022-10-19T04:10:43;98497.34;;;7.97;91.17
32456;BME280;18912;43.270;27.942;2022-10-19T04:13:08;98492.47;;;7.93;91.34
32456;BME280;18912;43.270;27.942;2022-10-19T04:15:35;98502.59;;;7.91;90.69
32456;BME280;18912;43.270;27.942;2022-10-19T04:18:00;98500.22;;;7.96;89.79
32456;BME280;18912;43.270;27.942;2022-10-19T04:20:26;98502.59;;;7.91;89.23
32456;BME280;18912;43.270;27.942;2022-10-19T04:22:52;98499.91;;;7.91;89.25
32456;BME280;18912;43.270;27.942;2022-10-19T04:25:17;98501.47;;;7.85;88.58
32456;BME280;18912;43.270;27.942;2022-10-19T04:27:43;98497.94;;;7.85;89.10
32456;BME280;18912;43.270;27.942;2022-10-19T04:30:09;98496.56;;;7.89;88.86
32456;BME280;18912;43.270;27.942;2022-10-19T04:32:35;98488.78;;;7.94;88.97
32456;BME280;18912;43.270;27.942;2022-10-19T04:35:00;98484.72;;;7.98;88.91
32456;BME280;18912;43.270;27.942;2022-10-19T04:37:26;98486.00;;;8.02;90.09
32456;BME280;18912;43.270;27.942;2022-10-19T04:39:51;98484.72;;;7.98;90.65
32456;BME280;18912;43.270;27.942;2022-10-19T04:42:16;98484.94;;;8.11;90.51
32456;BME280;18912;43.270;27.942;2022-10-19T04:44:42;98477.41;;;8.21;90.32
32456;BME280;18912;43.270;27.942;2022-10-19T04:47:07;98479.75;;;8.24;89.91
32456;BME280;18912;43.270;27.942;2022-10-19T04:49:33;98469.56;;;8.34;89.87
32456;BME280;18912;43.270;27.942;2022-10-19T04:51:58;98471.06;;;8.36;89.21
32456;BME280;18912;43.270;27.942;2022-10-19T04:54:24;98466.78;;;8.42;89.51
32456;BME280;18912;43.270;27.942;2022-10-19T04:56:49;98469.50;;;8.57;89.78
32456;BME280;18912;43.270;27.942;2022-10-19T04:59:15;98441.59;;;8.49;90.14
32456;BME280;18912;43.270;27.942;2022-10-19T05:01:40;98461.84;;;8.75;89.56
32456;BME280;18912;43.270;27.942;2022-10-19T05:04:06;98453.28;;;8.86;89.31
32456;BME280;18912;43.270;27.942;2022-10-19T05:06:31;98463.41;;;8.98;88.76
32456;BME280;18912;43.270;27.942;2022-10-19T05:08:58;98447.00;;;9.14;88.63
32456;BME280;18912;43.270;27.942;2022-10-19T05:11:24;98450.38;;;9.37;88.02
32456;BME280;18912;43.270;27.942;2022-10-19T05:13:50;98460.03;;;9.68;86.87
32456;BME280;18912;43.270;27.942;2022-10-19T05:16:19;98452.31;;;9.86;86.12
32456;BME280;18912;43.270;27.942;2022-10-19T05:18:52;98460.75;;;10.04;85.63
32456;BME280;18912;43.270;27.942;2022-10-19T05:21:23;98460.53;;;10.20;85.44
32456;BME280;18912;43.270;27.942;2022-10-19T05:23:50;98462.34;;;10.47;84.20
32456;BME280;18912;43.270;27.942;2022-10-19T05:26:17;98467.97;;;10.80;83.33
32456;BME280;18912;43.270;27.942;2022-10-19T05:28:52;98465.94;;;10.88;84.31
32456;BME280;18912;43.270;27.942;2022-10-19T05:31:20;98468.31;;;11.11;84.97
32456;BME280;18912;43.270;27.942;2022-10-19T05:33:46;98462.59;;;11.47;86.07
32456;BME280;18912;43.270;27.942;2022-10-19T05:36:36;98465.41;;;11.99;86.59
32456;BME280;18912;43.270;27.942;2022-10-19T05:39:13;98466.25;;;12.39;86.71
32456;BME280;18912;43.270;27.942;2022-10-19T05:41:39;98462.00;;;12.82;86.07
32456;BME280;18912;43.270;27.942;2022-10-19T05:44:14;98466.84;;;13.31;84.98
32456;BME280;18912;43.270;27.942;2022-10-19T05:46:40;98459.91;;;13.79;83.84
32456;BME280;18912;43.270;27.942;2022-10-19T05:49:05;98464.13;;;14.31;81.52
32456;BME280;18912;43.270;27.942;2022-10-19T05:51:31;98463.34;;;14.91;79.13
32456;BME280;18912;43.270;27.942;2022-10-19T05:53:56;98462.63;;;15.50;76.60
32456;BME280;18912;43.270;27.942;2022-10-19T05:56:25;98464.97;;;16.17;74.90
32456;BME280;18912;43.270;27.942;2022-10-19T05:58:51;98461.16;;;16.83;72.78
32456;BME280;18912;43.270;27.942;2022-10-19T06:01:18;98461.50;;;17.49;69.78
32456;BME280;18912;43.270;27.942;2022-10-19T06:03:45;98460.84;;;18.15;66.71
32456;BME280;18912;43.270;27.942;2022-10-19T06:06:11;98459.78;;;18.65;64.77
32456;BME280;18912;43.270;27.942;2022-10-19T06:08:37;98462.88;;;19.29;63.35
32456;BME280;18912;43.270;27.942;2022-10-19T06:11:30;98464.34;;;20.06;60.53
32456;BME280;18912;43.270;27.942;2022-10-19T06:14:00;98461.63;;;20.65;58.47
32456;BME280;18912;43.270;27.942;2022-10-19T06:16:27;98463.44;;;20.91;57.05
32456;BME280;18912;43.270;27.942;2022-10-19T06:18:53;98457.69;;;21.39;55.94
32456;BME280;18912;43.270;27.942;2022-10-19T06:21:20;98460.03;;;21.77;54.48
32456;BME280;18912;43.270;27.942;2022-10-19T06:23:54;98462.94;;;22.43;53.10
32456;BME280;18912;43.270;27.942;2022-10-19T06:26:20;98463.50;;;22.80;51.96
32456;BME280;18912;43.270;27.942;2022-10-19T06:28:47;98469.22;;;23.29;50.35
32456;BME280;18912;43.270;27.942;2022-10-19T06:31:13;98453.91;;;23.66;49.56
32456;BME280;18912;43.270;27.942;2022-10-19T06:33:40;98445.47;;;24.40;48.07
32456;BME280;18912;43.270;27.942;2022-10-19T06:36:23;98454.91;;;25.25;45.69
32456;BME280;18912;43.270;27.942;2022-10-19T06:38:49;98456.19;;;26.22;43.79
32456;BME280;18912;43.270;27.942;2022-10-19T06:41:15;98460.97;;;26.86;41.99
32456;BME280;18912;43.270;27.942;2022-10-19T06:43:40;98460.69;;;27.47;40.09
32456;BME280;18912;43.270;27.942;2022-10-19T06:46:08;98458.31;;;28.44;38.62
32456;BME280;18912;43.270;27.942;2022-10-19T06:48:34;98463.09;;;29.88;36.63
32456;BME280;18912;43.270;27.942;2022-10-19T06:51:02;98447.31;;;31.46;33.41
32456;BME280;18912;43.270;27.942;2022-10-19T06:53:28;98444.44;;;32.83;31.75
32456;BME280;18912;43.270;27.942;2022-10-19T06:55:57;98443.91;;;34.83;28.88
32456;BME280;18912;43.270;27.942;2022-10-19T06:58:23;98448.41;;;35.74;26.42
32456;BME280;18912;43.270;27.942;2022-10-19T07:00:57;98448.63;;;37.69;24.82
32456;BME280;18912;43.270;27.942;2022-10-19T07:03:24;98447.41;;;38.18;23.89
32456;BME280;18912;43.270;27.942;2022-10-19T07:05:58;98441.97;;;39.21;22.59
32456;BME280;18912;43.270;27.942;2022-10-19T07:08:26;98447.38;;;39.34;22.52
32456;BME280;18912;43.270;27.942;2022-10-19T07:10:54;98445.78;;;39.36;22.26
32456;BME280;18912;43.270;27.942;2022-10-19T07:13:20;98442.94;;;39.76;21.97
32456;BME280;18912;43.270;27.942;2022-10-19T07:15:46;98444.53;;;39.70;21.75
32456;BME280;18912;43.270;27.942;2022-10-19T07:18:11;98439.63;;;38.94;22.44
32456;BME280;18912;43.270;27.942;2022-10-19T07:20:37;98437.75;;;38.46;22.43
32456;BME280;18912;43.270;27.942;2022-10-19T07:23:02;98445.19;;;37.79;22.67
32456;BME280;18912;43.270;27.942;2022-10-19T07:25:28;98438.16;;;37.05;23.65
32456;BME280;18912;43.270;27.942;2022-10-19T07:27:55;98431.06;;;36.19;23.86
32456;BME280;18912;43.270;27.942;2022-10-19T07:30:21;98424.09;;;34.92;25.64
32456;BME280;18912;43.270;27.942;2022-10-19T07:32:47;98417.66;;;33.39;27.14
32456;BME280;18912;43.270;27.942;2022-10-19T07:35:13;98417.44;;;32.26;28.77
32456;BME280;18912;43.270;27.942;2022-10-19T07:37:39;98417.53;;;31.50;29.92
32456;BME280;18912;43.270;27.942;2022-10-19T07:40:04;98407.41;;;30.65;30.61
32456;BME280;18912;43.270;27.942;2022-10-19T07:42:30;98404.31;;;30.50;31.15
32456;BME280;18912;43.270;27.942;2022-10-19T07:44:55;98396.75;;;30.16;31.91
32456;BME280;18912;43.270;27.942;2022-10-19T07:47:21;98397.72;;;29.86;31.72
32456;BME280;18912;43.270;27.942;2022-10-19T07:49:46;98389.50;;;29.81;32.02
32456;BME280;18912;43.270;27.942;2022-10-19T07:52:12;98395.38;;;29.79;31.35
32456;BME280;18912;43.270;27.942;2022-10-19T07:54:37;98387.06;;;29.96;31.71
32456;BME280;18912;43.270;27.942;2022-10-19T07:57:03;98388.66;;;29.72;31.57
32456;BME280;18912;43.270;27.942;2022-10-19T07:59:28;98386.41;;;29.91;31.53
32456;BME280;18912;43.270;27.942;2022-10-19T08:01:54;98383.13;;;30.23;31.07
32456;BME280;18912;43.270;27.942;2022-10-19T08:04:21;98381.03;;;30.54;30.82
32456;BME280;18912;43.270;27.942;2022-10-19T08:06:47;98377.84;;;30.64;30.35
32456;BME280;18912;43.270;27.942;2022-10-19T08:09:13;98379.66;;;30.86;29.80
32456;BME280;18912;43.270;27.942;2022-10-19T08:11:38;98377.63;;;31.03;29.86
32456;BME280;18912;43.270;27.942;2022-10-19T08:14:04;98380.53;;;31.15;30.18
32456;BME280;18912;43.270;27.942;2022-10-19T08:16:34;98382.63;;;31.27;29.58
32456;BME280;18912;43.270;27.942;2022-10-19T08:19:11;98378.97;;;31.35;29.29
32456;BME280;18912;43.270;27.942;2022-10-19T08:21:39;98367.81;;;31.44;28.73
32456;BME280;18912;43.270;27.942;2022-10-19T08:24:06;98367.41;;;31.54;28.38
32456;BME280;18912;43.270;27.942;2022-10-19T08:26:34;98372.56;;;31.35;29.34
32456;BME280;18912;43.270;27.942;2022-10-19T08:29:03;98364.28;;;30.46;29.58
32456;BME280;18912;43.270;27.942;2022-10-19T08:31:29;98363.69;;;31.03;28.83
32456;BME280;18912;43.270;27.942;2022-10-19T08:33:55;98353.78;;;31.14;28.26
32456;BME280;18912;43.270;27.942;2022-10-19T08:36:20;98360.56;;;31.43;28.36
32456;BME280;18912;43.270;27.942;2022-10-19T08:38:46;98364.59;;;31.24;28.68
32456;BME280;18912;43.270;27.942;2022-10-19T08:41:54;98356.34;;;30.90;28.79
32456;BME280;18912;43.270;27.942;2022-10-19T08:49:35;98349.13;;;31.65;27.31
32456;BME280;18912;43.270;27.942;2022-10-19T08:52:06;98350.06;;;31.40;27.47
32456;BME280;18912;43.270;27.942;2022-10-19T08:54:56;98348.00;;;30.73;27.65
32456;BME280;18912;43.270;27.942;2022-10-19T09:00:57;98342.91;;;31.21;27.42
32456;BME280;18912;43.270;27.942;2022-10-19T09:03:51;98336.25;;;31.43;26.92
32456;BME280;18912;43.270;27.942;2022-10-19T09:06:22;98329.47;;;31.73;25.11
32456;BME280;18912;43.270;27.942;2022-10-19T09:08:52;98343.03;;;31.25;27.21
32456;BME280;18912;43.270;27.942;2022-10-19T09:11:22;98342.25;;;31.24;26.62
32456;BME280;18912;43.270;27.942;2022-10-19T09:13:57;98339.13;;;31.17;26.14
32456;BME280;18912;43.270;27.942;2022-10-19T09:16:24;98339.53;;;31.45;25.23
32456;BME280;18912;43.270;27.942;2022-10-19T09:18:51;98335.16;;;31.85;25.06
32456;BME280;18912;43.270;27.942;2022-10-19T09:21:21;98328.91;;;30.92;25.74
32456;BME280;18912;43.270;27.942;2022-10-19T09:26:27;98313.09;;;31.05;25.32
32456;BME280;18912;43.270;27.942;2022-10-19T09:31:40;98315.09;;;31.63;25.00
32456;BME280;18912;43.270;27.942;2022-10-19T09:34:19;98312.47;;;31.58;24.86
32456;BME280;18912;43.270;27.942;2022-10-19T09:36:53;98304.19;;;31.11;24.61
32456;BME280;18912;43.270;27.942;2022-10-19T09:39:22;98311.47;;;31.04;24.06
32456;BME280;18912;43.270;27.942;2022-10-19T09:41:59;98309.84;;;31.32;24.00
32456;BME280;18912;43.270;27.942;2022-10-19T09:44:29;98307.47;;;30.67;24.24
32456;BME280;18912;43.270;27.942;2022-10-19T09:49:43;98297.34;;;29.69;25.21
32456;BME280;18912;43.270;27.942;2022-10-19T09:57:46;98294.16;;;31.19;24.01
32456;BME280;18912;43.270;27.942;2022-10-19T10:00:19;98294.66;;;31.12;24.20
32456;BME280;18912;43.270;27.942;2022-10-19T10:02:52;98297.94;;;31.14;24.42
32456;BME280;18912;43.270;27.942;2022-10-19T10:05:19;98281.94;;;31.23;23.90
32456;BME280;18912;43.270;27.942;2022-10-19T10:07:54;98290.00;;;31.54;23.67
32456;BME280;18912;43.270;27.942;2022-10-19T10:10:27;98276.28;;;31.41;23.51
32456;BME280;18912;43.270;27.942;2022-10-19T10:12:53;98270.91;;;31.27;23.89
32456;BME280;18912;43.270;27.942;2022-10-19T10:15:40;98264.94;;;31.46;23.79
32456;BME280;18912;43.270;27.942;2022-10-19T10:18:14;98268.59;;;31.38;23.90
32456;BME280;18912;43.270;27.942;2022-10-19T10:21:11;98258.50;;;30.78;24.31
32456;BME280;18912;43.270;27.942;2022-10-19T10:23:37;98258.34;;;31.12;24.31
32456;BME280;18912;43.270;27.942;2022-10-19T10:26:04;98254.03;;;31.23;24.07
32456;BME280;18912;43.270;27.942;2022-10-19T10:28:30;98234.44;;;29.93;25.07
32456;BME280;18912;43.270;27.942;2022-10-19T10:31:04;98239.97;;;29.33;25.31
32456;BME280;18912;43.270;27.942;2022-10-19T10:33:34;98229.06;;;28.98;25.66
32456;BME280;18912;43.270;27.942;2022-10-19T10:36:06;98235.38;;;28.42;26.17
32456;BME280;18912;43.270;27.942;2022-10-19T10:38:50;98228.97;;;28.64;26.29
32456;BME280;18912;43.270;27.942;2022-10-19T10:41:20;98224.84;;;28.61;26.16
32456;BME280;18912;43.270;27.942;2022-10-19T10:46:19;98216.88;;;28.68;25.21
32456;BME280;18912;43.270;27.942;2022-10-19T10:48:57;98220.22;;;28.96;24.96
32456;BME280;18912;43.270;27.942;2022-10-19T10:54:20;98213.91;;;29.12;22.78
32456;BME280;18912;43.270;27.942;2022-10-19T11:00:10;98215.44;;;28.48;22.69
32456;BME280;18912;43.270;27.942;2022-10-19T11:03:13;98199.56;;;27.88;23.75
32456;BME280;18912;43.270;27.942;2022-10-19T11:05:43;98200.31;;;27.35;23.76
32456;BME280;18912;43.270;27.942;2022-10-19T11:10:42;98197.31;;;27.67;24.43
32456;BME280;18912;43.270;27.942;2022-10-19T11:13:20;98188.25;;;27.26;24.15
32456;BME280;18912;43.270;27.942;2022-10-19T11:15:56;98180.44;;;26.93;23.80
32456;BME280;18912;43.270;27.942;2022-10-19T11:18:29;98173.47;;;26.41;24.67
32456;BME280;18912;43.270;27.942;2022-10-19T11:31:47;98163.63;;;26.08;23.37
32456;BME280;18912;43.270;27.942;2022-10-19T11:40:11;98163.88;;;25.92;23.58
32456;BME280;18912;43.270;27.942;2022-10-19T11:48:12;98162.22;;;25.91;23.71
32456;BME280;18912;43.270;27.942;2022-10-19T11:53:17;98159.41;;;25.78;23.94
32456;BME280;18912;43.270;27.942;2022-10-19T11:56:08;98158.09;;;25.75;24.10
32456;BME280;18912;43.270;27.942;2022-10-19T11:58:43;98159.63;;;25.49;24.43
32456;BME280;18912;43.270;27.942;2022-10-19T12:01:18;98154.41;;;25.48;25.01
32456;BME280;18912;43.270;27.942;2022-10-19T12:06:36;98155.00;;;25.08;25.14
32456;BME280;18912;43.270;27.942;2022-10-19T12:09:17;98145.63;;;24.90;26.05
32456;BME280;18912;43.270;27.942;2022-10-19T12:12:10;98134.03;;;24.46;25.98
32456;BME280;18912;43.270;27.942;2022-10-19T12:14:42;98139.53;;;24.46;26.58
32456;BME280;18912;43.270;27.942;2022-10-19T12:17:19;98140.47;;;24.60;27.39
32456;BME280;18912;43.270;27.942;2022-10-19T12:19:48;98138.91;;;24.54;27.34
32456;BME280;18912;43.270;27.942;2022-10-19T12:22:22;98134.88;;;24.65;27.45
32456;BME280;18912;43.270;27.942;2022-10-19T12:24:48;98132.72;;;24.62;27.62
32456;BME280;18912;43.270;27.942;2022-10-19T12:27:16;98120.72;;;24.48;27.71
32456;BME280;18912;43.270;27.942;2022-10-19T12:29:45;98122.91;;;24.51;28.23
32456;BME280;18912;43.270;27.942;2022-10-19T12:32:15;98123.47;;;24.29;28.60
32456;BME280;18912;43.270;27.942;2022-10-19T12:34:51;98122.09;;;24.27;28.54
32456;BME280;18912;43.270;27.942;2022-10-19T12:40:04;98113.94;;;24.40;28.84
32456;BME280;18912;43.270;27.942;2022-10-19T12:42:57;98116.66;;;24.22;29.25
32456;BME280;18912;43.270;27.942;2022-10-19T12:45:30;98111.06;;;24.27;28.69
32456;BME280;18912;43.270;27.942;2022-10-19T13:01:18;98095.28;;;24.08;29.47
32456;BME280;18912;43.270;27.942;2022-10-19T13:03:46;98097.75;;;24.10;29.92
32456;BME280;18912;43.270;27.942;2022-10-19T13:06:18;98093.88;;;24.30;29.45
32456;BME280;18912;43.270;27.942;2022-10-19T13:08:57;98098.44;;;24.21;29.54
32456;BME280;18912;43.270;27.942;2022-10-19T13:11:23;98095.66;;;24.21;29.33
32456;BME280;18912;43.270;27.942;2022-10-19T13:14:40;98095.25;;;24.32;29.32
32456;BME280;18912;43.270;27.942;2022-10-19T13:16:56;98103.53;;;24.32;29.36
32456;BME280;18912;43.270;27.942;2022-10-19T13:19:22;98093.53;;;24.36;29.47
32456;BME280;18912;43.270;27.942;2022-10-19T13:24:26;98099.38;;;23.82;30.03
32456;BME280;18912;43.270;27.942;2022-10-19T13:35:28;98094.34;;;23.66;30.66
32456;BME280;18912;43.270;27.942;2022-10-19T13:43:18;98079.00;;;23.78;31.04
32456;BME280;18912;43.270;27.942;2022-10-19T13:57:10;98086.84;;;23.43;31.05
32456;BME280;18912;43.270;27.942;2022-10-19T14:10:38;98076.28;;;23.16;32.03
32456;BME280;18912;43.270;27.942;2022-10-19T14:13:12;98070.97;;;22.91;32.21
32456;BME280;18912;43.270;27.942;2022-10-19T14:15:37;98067.97;;;22.87;32.28
32456;BME280;18912;43.270;27.942;2022-10-19T14:18:27;98071.91;;;22.76;32.62
32456;BME280;18912;43.270;27.942;2022-10-19T14:20:57;98073.56;;;22.77;32.74
32456;BME280;18912;43.270;27.942;2022-10-19T14:23:26;98071.66;;;22.73;32.80
32456;BME280;18912;43.270;27.942;2022-10-19T14:28:23;98090.47;;;22.61;32.88
32456;BME280;18912;43.270;27.942;2022-10-19T14:33:24;98075.53;;;22.18;33.23
32456;BME280;18912;43.270;27.942;2022-10-19T14:35:51;98080.22;;;22.17;33.66
32456;BME280;18912;43.270;27.942;2022-10-19T14:38:37;98076.91;;;22.15;33.97
32456;BME280;18912;43.270;27.942;2022-10-19T14:41:05;98074.19;;;22.10;33.87
32456;BME280;18912;43.270;27.942;2022-10-19T14:43:41;98078.06;;;22.04;34.22
32456;BME280;18912;43.270;27.942;2022-10-19T14:48:38;98070.97;;;21.88;34.85
32456;BME280;18912;43.270;27.942;2022-10-19T14:51:20;98072.66;;;21.74;35.18
32456;BME280;18912;43.270;27.942;2022-10-19T14:53:55;98075.44;;;21.59;35.70
32456;BME280;18912;43.270;27.942;2022-10-19T14:56:28;98066.09;;;21.45;35.73
32456;BME280;18912;43.270;27.942;2022-10-19T14:59:00;98072.72;;;21.34;35.86
32456;BME280;18912;43.270;27.942;2022-10-19T15:01:27;98064.47;;;21.24;35.93
32456;BME280;18912;43.270;27.942;2022-10-19T15:03:52;98070.00;;;21.14;36.40
32456;BME280;18912;43.270;27.942;2022-10-19T15:06:22;98067.25;;;21.04;36.75
32456;BME280;18912;43.270;27.942;2022-10-19T15:08:52;98067.50;;;20.92;36.73
32456;BME280;18912;43.270;27.942;2022-10-19T15:11:39;98077.13;;;20.80;36.99
32456;BME280;18912;43.270;27.942;2022-10-19T15:14:13;98075.19;;;20.70;37.37
32456;BME280;18912;43.270;27.942;2022-10-19T15:16:55;98078.19;;;20.59;37.54
32456;BME280;18912;43.270;27.942;2022-10-19T15:22:11;98081.16;;;20.37;38.17
32456;BME280;18912;43.270;27.942;2022-10-19T15:24:38;98082.22;;;20.21;38.67
32456;BME280;18912;43.270;27.942;2022-10-19T15:27:17;98084.06;;;20.10;38.72
32456;BME280;18912;43.270;27.942;2022-10-19T15:30:01;98076.88;;;19.99;39.21
32456;BME280;18912;43.270;27.942;2022-10-19T15:32:42;98090.53;;;19.89;39.40
32456;BME280;18912;43.270;27.942;2022-10-19T15:35:11;98084.97;;;19.74;40.08